createdAt,value
2022-12-05T00:02:33.884Z,8.78
2022-12-05T00:05:23.463Z,8.77
2022-12-05T00:08:12.940Z,8.75
2022-12-05T00:11:02.274Z,8.76
2022-12-05T00:13:53.288Z,8.66
2022-12-05T00:16:45.612Z,8.75
2022-12-05T00:19:35.388Z,8.81
2022-12-05T00:22:24.655Z,8.86
2022-12-05T00:25:13.982Z,8.82
2022-12-05T00:28:03.360Z,8.91
2022-12-05T00:30:52.732Z,8.88
2022-12-05T00:33:43.816Z,8.80
2022-12-05T00:36:36.534Z,8.89
2022-12-05T00:39:25.896Z,8.85
2022-12-05T00:42:15.343Z,8.87
2022-12-05T00:45:05.299Z,9.00
2022-12-05T00:47:54.630Z,9.01
2022-12-05T00:50:45.384Z,9.00
2022-12-05T00:53:35.441Z,9.04
2022-12-05T00:56:27.926Z,9.00
2022-12-05T00:59:21.967Z,8.95
2022-12-05T01:02:11.360Z,8.87
2022-12-05T01:05:00.629Z,8.86
2022-12-05T01:07:51.377Z,8.83
2022-12-05T01:10:40.749Z,8.87
2022-12-05T01:13:30.837Z,8.78
2022-12-05T01:16:24.203Z,8.84
2022-12-05T01:19:17.226Z,8.68
2022-12-05T01:22:06.700Z,8.63
2022-12-05T01:24:58.300Z,8.64
2022-12-05T01:27:48.064Z,8.70
2022-12-05T01:30:41.309Z,8.60
2022-12-05T01:33:31.456Z,8.62
2022-12-05T01:36:22.260Z,8.60
2022-12-05T01:39:13.218Z,8.55
2022-12-05T01:42:07.062Z,8.68
2022-12-05T01:45:16.136Z,8.64
2022-12-05T01:48:12.061Z,8.73
2022-12-05T01:51:02.464Z,8.63
2022-12-05T01:53:52.220Z,8.70
2022-12-05T01:56:43.686Z,8.64
2022-12-05T01:59:38.665Z,8.72
2022-12-05T02:02:29.720Z,8.66
2022-12-05T02:05:22.461Z,8.75
2022-12-05T02:08:13.353Z,8.75
2022-12-05T02:11:03.081Z,8.80
2022-12-05T02:14:22.564Z,8.83
2022-12-05T02:17:23.105Z,8.84
2022-12-05T02:20:28.146Z,8.82
2022-12-05T02:23:52.108Z,8.90
2022-12-05T02:26:55.840Z,8.88
2022-12-05T02:30:11.413Z,8.95
2022-12-05T02:33:18.248Z,8.96
2022-12-05T02:36:13.877Z,8.91
2022-12-05T02:39:15.755Z,8.87
2022-12-05T02:42:12.634Z,8.82
2022-12-05T02:45:10.093Z,8.81
2022-12-05T02:48:02.005Z,8.83
2022-12-05T02:50:53.600Z,8.77
2022-12-05T02:53:45.588Z,8.77
2022-12-05T02:56:37.497Z,8.74
2022-12-05T02:59:26.947Z,8.71
2022-12-05T03:02:28.213Z,8.62
2022-12-05T03:05:27.982Z,8.51
2022-12-05T03:08:24.247Z,8.56
2022-12-05T03:11:16.070Z,8.40
2022-12-05T03:14:12.749Z,8.50
2022-12-05T03:17:08.024Z,8.34
2022-12-05T03:20:05.674Z,8.34
2022-12-05T03:23:00.717Z,8.29
2022-12-05T03:25:59.665Z,8.27
2022-12-05T03:29:01.244Z,8.19
2022-12-05T03:32:04.341Z,8.28
2022-12-05T03:35:06.196Z,8.26
2022-12-05T03:38:02.806Z,8.17
2022-12-05T03:40:58.599Z,8.14
2022-12-05T03:43:54.327Z,8.28
2022-12-05T03:46:48.873Z,8.09
2022-12-05T03:49:44.841Z,8.28
2022-12-05T03:53:17.571Z,8.12
2022-12-05T03:56:01.654Z,8.17
2022-12-05T03:58:59.824Z,8.02
2022-12-05T04:01:51.922Z,8.18
2022-12-05T04:04:48.798Z,8.06
2022-12-05T04:07:42.157Z,8.14
2022-12-05T04:10:48.842Z,8.22
2022-12-05T04:13:43.523Z,8.15
2022-12-05T04:16:58.130Z,8.16
2022-12-05T04:20:09.935Z,8.17
2022-12-05T04:23:01.423Z,8.22
2022-12-05T04:26:02.426Z,8.19
2022-12-05T04:28:59.112Z,8.19
2022-12-05T04:31:57.756Z,8.21
2022-12-05T04:34:56.826Z,8.22
2022-12-05T04:37:50.720Z,8.26
2022-12-05T04:40:50.990Z,8.26
2022-12-05T04:43:43.917Z,8.27
2022-12-05T04:46:34.247Z,8.30
2022-12-05T04:49:26.633Z,8.31
2022-12-05T04:52:16.915Z,8.32
2022-12-05T04:55:10.853Z,8.38
2022-12-05T04:58:09.091Z,8.39
2022-12-05T05:01:04.218Z,8.37
2022-12-05T05:04:00.079Z,8.36
2022-12-05T05:06:49.542Z,8.39
2022-12-05T05:09:40.354Z,8.41
2022-12-05T05:12:29.645Z,8.47
2022-12-05T05:15:20.440Z,8.48
2022-12-05T05:18:11.292Z,8.47
2022-12-05T05:21:00.813Z,8.43
2022-12-05T05:23:50.716Z,8.39
2022-12-05T05:26:43.465Z,8.46
2022-12-05T05:29:32.830Z,8.37
2022-12-05T05:32:23.523Z,8.27
2022-12-05T05:35:13.723Z,8.31
2022-12-05T05:38:03.144Z,8.29
2022-12-05T05:40:52.612Z,8.30
2022-12-05T05:43:42.920Z,8.31
2022-12-05T05:46:35.751Z,8.17
2022-12-05T05:49:26.796Z,8.24
2022-12-05T05:52:16.129Z,8.23
2022-12-05T05:55:07.488Z,8.22
2022-12-05T05:57:57.127Z,8.25
2022-12-05T06:00:46.471Z,8.26
2022-12-05T06:03:36.364Z,8.33
2022-12-05T06:06:27.378Z,8.35
2022-12-05T06:09:16.708Z,8.44
2022-12-05T06:12:06.966Z,8.46
2022-12-05T06:14:56.337Z,8.40
2022-12-05T06:17:45.571Z,8.32
2022-12-05T06:20:35.261Z,8.24
2022-12-05T06:23:27.645Z,8.27
2022-12-05T06:26:20.916Z,8.29
2022-12-05T06:29:10.442Z,8.31
2022-12-05T06:31:59.888Z,8.28
2022-12-05T06:34:49.268Z,8.34
2022-12-05T06:37:39.424Z,8.24
2022-12-05T06:40:30.178Z,8.30
2022-12-05T06:43:19.481Z,8.36
2022-12-05T06:46:11.946Z,8.36
2022-12-05T06:49:01.899Z,8.36
2022-12-05T06:51:51.233Z,8.41
2022-12-05T06:54:40.575Z,8.34
2022-12-05T06:57:31.432Z,8.43
2022-12-05T07:00:39.155Z,8.47
2022-12-05T07:03:28.545Z,8.34
2022-12-05T07:06:18.432Z,8.45
2022-12-05T07:09:08.069Z,8.48
2022-12-05T07:11:57.373Z,8.54
2022-12-05T07:14:49.852Z,8.44
2022-12-05T07:17:40.432Z,8.43
2022-12-05T07:20:38.302Z,8.38
2022-12-05T07:23:38.699Z,8.43
2022-12-05T07:26:28.036Z,8.39
2022-12-05T07:29:17.516Z,8.42
2022-12-05T07:32:08.780Z,8.36
2022-12-05T07:34:58.181Z,8.45
2022-12-05T07:37:47.480Z,8.46
2022-12-05T07:40:39.117Z,8.43
2022-12-05T07:43:28.689Z,8.47
2022-12-05T07:46:18.196Z,8.42
2022-12-05T07:49:09.941Z,8.45
2022-12-05T07:51:59.341Z,8.37
2022-12-05T07:54:48.636Z,8.41
2022-12-05T07:57:39.379Z,8.36
2022-12-05T08:00:28.686Z,8.36
2022-12-05T08:03:17.995Z,8.39
2022-12-05T08:06:11.639Z,8.36
2022-12-05T08:09:02.227Z,8.40
2022-12-05T08:11:52.971Z,8.47
2022-12-05T08:14:42.630Z,8.49
2022-12-05T08:17:33.588Z,8.50
2022-12-05T08:20:22.999Z,8.49
2022-12-05T08:23:13.732Z,8.39
2022-12-05T08:26:04.131Z,8.35
2022-12-05T08:28:56.066Z,8.36
2022-12-05T08:31:48.616Z,8.31
2022-12-05T08:34:38.302Z,8.33
2022-12-05T08:37:27.661Z,8.33
2022-12-05T08:40:18.624Z,8.26
2022-12-05T08:43:08.022Z,8.29
2022-12-05T08:45:57.378Z,8.22
2022-12-05T08:48:47.077Z,8.22
2022-12-05T08:51:36.482Z,8.29
2022-12-05T08:54:26.513Z,8.28
2022-12-05T08:57:17.302Z,8.31
2022-12-05T09:00:08.481Z,8.36
2022-12-05T09:02:57.790Z,8.41
2022-12-05T09:05:47.190Z,8.41
2022-12-05T09:08:36.512Z,8.44
2022-12-05T09:11:28.797Z,8.42
2022-12-05T09:14:20.316Z,8.41
2022-12-05T09:17:09.708Z,8.41
2022-12-05T09:19:59.482Z,8.49
2022-12-05T09:22:48.822Z,8.40
2022-12-05T09:25:38.064Z,8.43
2022-12-05T09:28:27.440Z,8.38
2022-12-05T09:31:21.029Z,8.44
2022-12-05T09:34:10.859Z,8.44
2022-12-05T09:37:16.605Z,8.46
2022-12-05T09:40:18.403Z,8.41
2022-12-05T09:43:10.577Z,8.42
2022-12-05T09:46:11.563Z,8.56
2022-12-05T09:49:05.595Z,8.60
2022-12-05T09:51:56.717Z,8.62
2022-12-05T09:54:46.346Z,8.47
2022-12-05T09:57:42.053Z,8.63
2022-12-05T10:00:33.757Z,8.72
2022-12-05T10:03:30.898Z,8.71
2022-12-05T10:06:30.300Z,8.72
2022-12-05T10:09:43.748Z,8.68
2022-12-05T10:12:53.062Z,8.68
2022-12-05T10:15:50.177Z,8.70
2022-12-05T10:18:48.216Z,8.83
2022-12-05T10:21:49.184Z,8.89
2022-12-05T10:24:41.998Z,9.01
2022-12-05T10:27:40.214Z,9.00
2022-12-05T10:30:33.479Z,9.00
2022-12-05T10:33:25.231Z,9.10
2022-12-05T10:36:16.301Z,9.03
2022-12-05T10:39:11.279Z,9.07
2022-12-05T10:42:01.284Z,9.11
2022-12-05T10:44:54.705Z,9.04
2022-12-05T10:47:44.690Z,9.14
2022-12-05T10:50:38.361Z,9.14
2022-12-05T10:53:33.222Z,9.11
2022-12-05T10:56:45.415Z,9.10
2022-12-05T10:59:49.119Z,9.15
2022-12-05T11:02:39.363Z,9.17
2022-12-05T11:05:31.452Z,9.15
2022-12-05T11:08:48.238Z,9.12
2022-12-05T11:11:36.089Z,9.17
2022-12-05T11:14:29.895Z,9.25
2022-12-05T11:17:27.765Z,9.33
2022-12-05T11:20:39.347Z,9.33
2022-12-05T11:23:31.864Z,9.31
2022-12-05T11:26:36.321Z,9.29
2022-12-05T11:29:40.084Z,9.27
2022-12-05T11:32:33.732Z,9.22
2022-12-05T11:35:28.474Z,9.18
2022-12-05T11:38:20.699Z,9.05
2022-12-05T11:41:43.206Z,8.99
2022-12-05T11:44:57.271Z,9.01
2022-12-05T11:48:06.227Z,8.86
2022-12-05T11:51:17.137Z,9.02
2022-12-05T11:58:25.420Z,9.10
2022-12-05T12:01:29.007Z,9.16
2022-12-05T12:04:51.937Z,9.22
2022-12-05T12:08:04.937Z,9.36
2022-12-05T12:11:06.723Z,9.40
2022-12-05T12:14:07.177Z,9.37
2022-12-05T12:17:16.457Z,9.29
2022-12-05T12:20:40.634Z,9.15
2022-12-05T12:23:42.709Z,9.04
2022-12-05T12:26:45.780Z,8.99
2022-12-05T12:30:00.471Z,8.89
2022-12-05T12:33:05.001Z,8.78
2022-12-05T12:36:00.574Z,8.67
2022-12-05T12:39:17.988Z,8.63
2022-12-05T12:42:26.565Z,8.61
2022-12-05T12:45:52.451Z,8.61
2022-12-05T12:49:02.567Z,8.64
2022-12-05T12:51:59.951Z,8.59
2022-12-05T12:55:14.212Z,8.63
2022-12-05T12:58:17.458Z,8.63
2022-12-05T13:01:18.274Z,8.67
2022-12-05T13:04:14.960Z,8.74
2022-12-05T13:07:12.099Z,8.81
2022-12-05T13:10:13.060Z,8.80
2022-12-05T13:13:04.094Z,8.79
2022-12-05T13:15:57.546Z,8.80
2022-12-05T13:18:47.369Z,8.88
2022-12-05T13:21:38.134Z,8.89
2022-12-05T13:24:29.689Z,8.93
2022-12-05T13:27:21.795Z,9.00
2022-12-05T13:30:19.953Z,9.02
2022-12-05T13:33:12.204Z,8.98
2022-12-05T13:36:29.494Z,8.98
2022-12-05T13:39:41.849Z,9.00
2022-12-05T13:42:36.492Z,9.02
2022-12-05T13:45:26.241Z,9.03
2022-12-05T13:48:23.843Z,8.93
2022-12-05T13:51:23.423Z,8.97
2022-12-05T13:54:18.399Z,8.92
2022-12-05T13:57:35.739Z,8.91
2022-12-05T14:00:37.172Z,8.90
2022-12-05T14:03:58.415Z,8.94
2022-12-05T14:07:00.320Z,9.01
2022-12-05T14:09:55.349Z,8.96
2022-12-05T14:12:52.889Z,8.99
2022-12-05T14:15:45.689Z,8.95
2022-12-05T14:18:49.206Z,8.90
2022-12-05T14:21:47.077Z,8.89
2022-12-05T14:24:48.074Z,8.81
2022-12-05T14:27:52.862Z,8.82
2022-12-05T14:30:54.598Z,8.93
2022-12-05T14:33:44.285Z,8.88
2022-12-05T14:36:33.956Z,8.83
2022-12-05T14:39:31.815Z,8.79
2022-12-05T14:42:27.347Z,8.73
2022-12-05T14:45:29.773Z,8.76
2022-12-05T14:48:32.131Z,8.77
2022-12-05T14:51:47.055Z,8.77
2022-12-05T14:54:36.935Z,8.81
2022-12-05T14:57:26.908Z,8.84
2022-12-05T15:00:23.855Z,8.82
2022-12-05T15:03:26.132Z,8.77
2022-12-05T15:06:17.951Z,8.84
2022-12-05T15:09:37.020Z,8.86
2022-12-05T15:12:33.365Z,8.84
2022-12-05T15:15:35.065Z,8.92
2022-12-05T15:18:31.253Z,8.83
2022-12-05T15:21:27.802Z,8.93
2022-12-05T15:24:19.224Z,8.93
2022-12-05T15:27:13.147Z,8.88
2022-12-05T15:30:02.795Z,8.92
2022-12-05T15:32:57.688Z,8.89
2022-12-05T15:35:53.480Z,8.85
2022-12-05T15:38:42.996Z,8.84
2022-12-05T15:41:32.679Z,8.82
2022-12-05T15:44:27.630Z,8.78
2022-12-05T15:47:24.654Z,8.75
2022-12-05T15:50:16.647Z,8.67
2022-12-05T15:53:16.661Z,8.59
2022-12-05T15:56:12.853Z,8.64
2022-12-05T15:59:11.779Z,8.64
2022-12-05T16:02:11.636Z,8.57
2022-12-05T16:05:02.070Z,8.58
2022-12-05T16:07:53.871Z,8.56
2022-12-05T16:10:44.865Z,8.59
2022-12-05T16:13:34.439Z,8.55
2022-12-05T16:16:27.610Z,8.69
2022-12-05T16:19:18.055Z,8.68
2022-12-05T16:22:10.499Z,8.62
2022-12-05T16:25:04.833Z,8.73
2022-12-05T16:28:15.206Z,8.77
2022-12-05T16:31:06.417Z,8.58
2022-12-05T16:34:08.608Z,8.67
2022-12-05T16:36:58.921Z,8.81
2022-12-05T16:39:48.602Z,8.75
2022-12-05T16:42:39.940Z,8.76
2022-12-05T16:45:43.512Z,8.72
2022-12-05T16:48:33.713Z,8.74
2022-12-05T16:51:26.127Z,8.79
2022-12-05T16:54:15.572Z,8.76
2022-12-05T16:57:05.335Z,8.78
2022-12-05T16:59:54.662Z,8.75
2022-12-05T17:02:47.139Z,8.79
2022-12-05T17:05:36.430Z,8.78
2022-12-05T17:08:26.753Z,8.76
2022-12-05T17:11:22.275Z,8.76
2022-12-05T17:14:15.436Z,8.76
2022-12-05T17:17:06.059Z,8.63
2022-12-05T17:19:56.830Z,8.54
2022-12-05T17:22:46.128Z,8.52
2022-12-05T17:25:38.107Z,8.45
2022-12-05T17:28:27.832Z,8.40
2022-12-05T17:31:19.364Z,8.31
2022-12-05T17:34:17.634Z,8.23
2022-12-05T17:37:08.310Z,8.34
2022-12-05T17:39:57.847Z,8.30
2022-12-05T17:42:48.681Z,8.34
2022-12-05T17:45:38.089Z,8.31
2022-12-05T17:48:27.501Z,8.25
2022-12-05T17:51:17.137Z,8.28
2022-12-05T17:54:07.926Z,8.26
2022-12-05T17:56:57.368Z,8.18
2022-12-05T17:59:46.757Z,8.22
2022-12-05T18:02:36.174Z,8.21
2022-12-05T18:05:25.605Z,8.28
2022-12-05T18:08:16.677Z,8.37
2022-12-05T18:11:08.203Z,8.36
2022-12-05T18:13:58.415Z,8.30
2022-12-05T18:16:47.823Z,8.37
2022-12-05T18:19:37.085Z,8.28
2022-12-05T18:22:28.274Z,8.30
2022-12-05T18:25:17.733Z,8.37
2022-12-05T18:28:08.748Z,8.44
2022-12-05T18:31:13.625Z,8.47
2022-12-05T18:34:03.026Z,8.51
2022-12-05T18:36:52.879Z,8.49
2022-12-05T18:39:42.418Z,8.46
2022-12-05T18:42:31.929Z,8.45
2022-12-05T18:45:22.740Z,8.42
2022-12-05T18:51:23.623Z,8.47
2022-12-05T18:54:13.139Z,8.56
2022-12-05T18:57:02.742Z,8.59
2022-12-05T18:59:52.110Z,8.59
2022-12-05T19:02:43.056Z,8.67
2022-12-05T19:05:32.617Z,8.70
2022-12-05T19:08:22.696Z,8.75
2022-12-05T19:11:13.075Z,8.84
2022-12-05T19:14:04.875Z,8.85
2022-12-05T19:17:00.158Z,8.78
2022-12-05T19:19:51.290Z,8.68
2022-12-05T19:22:40.657Z,8.71
2022-12-05T19:25:31.033Z,8.63
2022-12-05T19:28:20.544Z,8.59
2022-12-05T19:31:12.171Z,8.53
2022-12-05T19:34:03.315Z,8.62
2022-12-05T19:36:54.066Z,8.60
2022-12-05T19:39:44.682Z,8.54
2022-12-05T19:42:34.829Z,8.49
2022-12-05T19:45:24.984Z,8.48
2022-12-05T19:48:15.190Z,8.46
2022-12-05T19:51:05.076Z,8.45
2022-12-05T19:53:55.986Z,8.38
2022-12-05T19:56:45.681Z,8.40
2022-12-05T19:59:35.006Z,8.41
2022-12-05T20:02:25.362Z,8.29
2022-12-05T20:05:14.863Z,8.32
2022-12-05T20:08:04.307Z,8.31
2022-12-05T20:10:55.426Z,8.33
2022-12-05T20:13:46.893Z,8.24
2022-12-05T20:16:37.279Z,8.25
2022-12-05T20:19:26.628Z,8.28
2022-12-05T20:22:15.929Z,8.30
2022-12-05T20:25:06.547Z,8.23
2022-12-05T20:27:57.606Z,8.28
2022-12-05T20:30:47.113Z,8.31
2022-12-05T20:33:37.624Z,8.33
2022-12-05T20:36:29.587Z,8.36
2022-12-05T20:39:19.881Z,8.29
2022-12-05T20:42:09.311Z,8.35
2022-12-05T20:45:00.151Z,8.30
2022-12-05T20:47:51.396Z,8.33
2022-12-05T20:50:40.765Z,8.35
2022-12-05T20:53:30.131Z,8.37
2022-12-05T20:56:21.464Z,8.36
2022-12-05T20:59:14.478Z,8.41
2022-12-05T21:02:05.216Z,8.37
2022-12-05T21:04:55.034Z,8.34
2022-12-05T21:07:44.440Z,8.44
2022-12-05T21:10:33.799Z,8.43
2022-12-05T21:13:23.090Z,8.42
2022-12-05T21:16:17.043Z,8.40
2022-12-05T21:19:08.946Z,8.38
2022-12-05T21:21:58.304Z,8.37
2022-12-05T21:24:47.652Z,8.29
2022-12-05T21:27:37.002Z,8.27
2022-12-05T21:30:26.678Z,8.26
2022-12-05T21:33:16.096Z,8.27
2022-12-05T21:36:08.659Z,8.31
2022-12-05T21:38:58.275Z,8.28
2022-12-05T21:41:47.640Z,8.21
2022-12-05T21:44:36.936Z,8.15
2022-12-05T21:47:26.820Z,8.23
2022-12-05T21:50:16.678Z,8.21
2022-12-05T21:53:07.406Z,8.22
2022-12-05T21:56:05.288Z,8.23
2022-12-05T21:58:54.900Z,8.26
2022-12-05T22:01:44.588Z,8.30
2022-12-05T22:04:33.977Z,8.33
2022-12-05T22:07:23.362Z,8.37
2022-12-05T22:10:14.460Z,8.31
2022-12-05T22:13:04.750Z,8.34
2022-12-05T22:15:58.276Z,8.39
2022-12-05T22:18:48.479Z,8.35
2022-12-05T22:21:37.764Z,8.34
2022-12-05T22:24:27.089Z,8.32
2022-12-05T22:27:18.024Z,8.33
2022-12-05T22:30:09.600Z,8.33
2022-12-05T22:32:59.223Z,8.32
2022-12-05T22:35:53.222Z,8.32
2022-12-05T22:38:44.549Z,8.37
2022-12-05T22:41:34.220Z,8.36
2022-12-05T22:44:25.128Z,8.38
2022-12-05T22:47:14.571Z,8.35
2022-12-05T22:50:04.042Z,8.32
2022-12-05T22:52:53.471Z,8.30
2022-12-05T22:55:42.789Z,8.29
2022-12-05T22:58:32.969Z,8.29
2022-12-05T23:01:26.786Z,8.34
2022-12-05T23:04:16.492Z,8.37
2022-12-05T23:07:06.309Z,8.34
2022-12-05T23:09:56.270Z,8.33
2022-12-05T23:12:46.121Z,8.30
2022-12-05T23:15:38.248Z,8.25
2022-12-05T23:18:29.341Z,8.31
2022-12-05T23:21:22.544Z,8.31
2022-12-05T23:24:13.943Z,8.25
2022-12-05T23:27:03.688Z,8.34
2022-12-05T23:29:53.884Z,8.29
2022-12-05T23:32:43.943Z,8.30
2022-12-05T23:35:36.994Z,8.28
2022-12-05T23:38:26.810Z,8.26
2022-12-05T23:41:19.132Z,8.23
2022-12-05T23:44:08.908Z,8.23
2022-12-05T23:46:58.872Z,8.21
2022-12-05T23:49:48.903Z,8.21
2022-12-05T23:52:40.323Z,8.20
2022-12-05T23:55:30.196Z,8.23
2022-12-05T23:58:19.974Z,8.14
